Time;durP1;ratioP1;P1;durP2;ratioP2;P2;SDS_P1;SDS_P2;PMS_P1;PMS_P2;Temp;Humidity;BMP_temperature;BMP_pressure;BME280_temperature;BME280_humidity;BME280_pressure;Samples;Min_cycle;Max_cycle;Signal;HPM_P1;HPM_P2
2021/01/15 00:01:39;;;;;;;19.63;10.45;;;13.20;2201.60;;;;;;5025583;28;20033;-60
2021/01/15 00:04:06;;;;;;;26.33;11.35;;;13.30;2201.60;;;;;;5028339;28;20056;-58
2021/01/15 00:06:32;;;;;;;30.10;13.27;;;13.20;2201.60;;;;;;5026525;28;20030;-59
2021/01/15 00:08:58;;;;;;;27.70;11.40;;;13.20;2201.60;;;;;;5023785;28;20471;-57
2021/01/15 00:11:30;;;;;;;39.80;15.00;;;13.30;2201.60;;;;;;5025064;28;20124;-60
2021/01/15 00:13:57;;;;;;;31.15;13.90;;;13.30;2201.60;;;;;;5025734;28;20075;-56
2021/01/15 00:16:26;;;;;;;39.75;16.50;;;13.30;2201.60;;;;;;5024275;28;20421;-58
2021/01/15 00:18:54;;;;;;;33.80;14.55;;;13.30;2201.60;;;;;;5023990;28;20029;-59
2021/01/15 00:21:20;;;;;;;37.40;16.23;;;13.30;2201.60;;;;;;5025653;28;20042;-57
2021/01/15 00:23:46;;;;;;;26.77;13.52;;;13.30;2201.60;;;;;;5025037;28;20025;-60
2021/01/15 00:26:17;;;;;;;28.02;14.77;;;13.40;2201.60;;;;;;5023093;28;20430;-57
2021/01/15 00:28:43;;;;;;;29.52;15.00;;;13.40;2201.60;;;;;;5024156;28;20096;-56
2021/01/15 00:31:08;;;;;;;28.88;13.73;;;13.40;2201.60;;;;;;5024141;28;20429;-57
2021/01/15 00:33:34;;;;;;;22.48;11.13;;;13.50;2201.60;;;;;;5022819;28;20030;-57
2021/01/15 00:36:00;;;;;;;24.25;12.07;;;13.50;2201.60;;;;;;5016023;28;20026;-58
2021/01/15 00:38:26;;;;;;;27.10;13.77;;;13.50;2201.60;;;;;;5026827;28;20025;-60
2021/01/15 00:41:11;;;;;;;31.27;14.82;;;13.50;2201.60;;;;;;5035595;28;20033;-57
2021/01/15 00:43:37;;;;;;;25.20;12.23;;;13.50;2201.60;;;;;;5035694;28;20383;-56
2021/01/15 00:46:07;;;;;;;26.75;12.93;;;13.50;2201.60;;;;;;5035428;28;20022;-58
2021/01/15 00:48:36;;;;;;;21.73;11.20;;;13.50;2201.60;;;;;;5035304;28;20095;-56
2021/01/15 00:51:11;;;;;;;28.50;13.68;;;13.50;2201.60;;;;;;5035332;28;20442;-58
2021/01/15 00:53:37;;;;;;;;;;;13.50;2201.60;;;;;;5035773;28;20040;-58
2021/01/15 00:56:03;;;;;;;23.58;11.70;;;13.60;2201.60;;;;;;5035255;28;19909;-57
2021/01/15 00:58:29;;;;;;;21.10;10.50;;;13.60;2201.60;;;;;;5035320;28;20045;-57
2021/01/15 01:00:55;;;;;;;19.27;9.77;;;13.60;2201.60;;;;;;5017193;28;20508;-57
2021/01/15 01:03:21;;;;;;;17.90;9.02;;;13.70;2201.60;;;;;;5034984;28;20063;-59
2021/01/15 01:05:46;;;;;;;17.90;8.88;;;13.70;2201.60;;;;;;5035160;28;20021;-58
2021/01/15 01:08:12;;;;;;;17.15;9.30;;;13.70;2201.60;;;;;;5035161;28;20044;-58
2021/01/15 01:10:38;;;;;;;19.92;10.05;;;13.70;2201.60;;;;;;5035169;28;20030;-57
2021/01/15 01:13:04;;;;;;;28.17;11.88;;;13.70;2201.60;;;;;;5017117;28;20128;-57
2021/01/15 01:15:30;;;;;;;23.77;11.15;;;38.40;2201.60;;;;;;5050928;28;20111;-59
2021/01/15 01:17:55;;;;;;;29.80;12.02;;;38.40;2201.60;;;;;;5040409;28;20049;-59
2021/01/15 01:20:21;;;;;;;35.78;13.25;;;38.40;2201.60;;;;;;5024725;28;20029;-57
2021/01/15 01:22:50;;;;;;;45.17;16.23;;;38.40;2201.60;;;;;;5028505;28;20489;-57
2021/01/15 01:25:17;;;;;;;37.13;15.38;;;38.40;2201.60;;;;;;5022904;28;20033;-57
2021/01/15 01:27:43;;;;;;;23.15;11.15;;;38.40;2201.60;;;;;;5033097;28;20053;-56
2021/01/15 01:30:10;;;;;;;25.67;11.57;;;38.40;2201.60;;;;;;5027715;28;20037;-56
2021/01/15 01:32:36;;;;;;;19.33;9.23;;;13.70;2201.60;;;;;;5010027;28;20494;-60
2021/01/15 01:35:03;;;;;;;16.58;7.47;;;38.40;2201.60;;;;;;5034839;28;20060;-57
2021/01/15 01:37:28;;;;;;;18.33;9.13;;;38.40;2201.60;;;;;;5033884;28;20021;-57
2021/01/15 01:39:54;;;;;;;21.20;10.35;;;38.40;2201.60;;;;;;5024288;28;20036;-59
2021/01/15 01:42:20;;;;;;;17.27;9.32;;;38.40;2201.60;;;;;;5009052;28;20078;-57
2021/01/15 01:44:45;;;;;;;19.70;10.07;;;38.40;2201.60;;;;;;5028249;28;20017;-57
2021/01/15 01:47:12;;;;;;;21.38;10.80;;;38.40;2201.60;;;;;;5028566;28;20029;-57
2021/01/15 01:49:37;;;;;;;17.40;9.63;;;38.40;2201.60;;;;;;5027268;28;20030;-56
2021/01/15 01:52:05;;;;;;;17.25;9.40;;;38.40;2201.60;;;;;;5023348;28;20517;-57
2021/01/15 01:54:34;;;;;;;24.48;10.80;;;38.40;2201.60;;;;;;5021697;28;20127;-57
2021/01/15 01:57:04;;;;;;;21.90;10.65;;;38.40;2201.60;;;;;;5022025;28;20088;-56
2021/01/15 01:59:30;;;;;;;23.98;12.15;;;38.40;2201.60;;;;;;5022372;28;20021;-57
2021/01/15 02:01:56;;;;;;;25.83;11.70;;;38.50;2201.60;;;;;;5023902;28;20108;-57
2021/01/15 02:04:22;;;;;;;24.40;11.88;;;38.50;2201.60;;;;;;5022345;28;20110;-56
2021/01/15 02:06:48;;;;;;;21.80;10.65;;;38.50;2201.60;;;;;;5022487;28;20026;-56
2021/01/15 02:09:14;;;;;;;24.17;12.07;;;38.50;2201.60;;;;;;5023213;28;20045;-56
2021/01/15 02:12:01;;;;;;;25.20;11.68;;;38.50;2201.60;;;;;;5021454;28;20030;-56
2021/01/15 02:14:51;;;;;;;21.35;10.32;;;38.50;2201.60;;;;;;5019065;28;20029;-56
2021/01/15 02:17:21;;;;;;;19.35;9.90;;;38.50;2201.60;;;;;;5014185;28;20030;-57
2021/01/15 02:20:18;;;;;;;19.77;9.27;;;38.50;2201.60;;;;;;5014429;28;20060;-56
2021/01/15 02:23:02;;;;;;;19.45;9.50;;;38.50;2201.60;;;;;;4953696;29;20031;-57
2021/01/15 02:25:58;;;;;;;25.83;11.80;;;38.50;2201.60;;;;;;4937743;29;20038;-57
2021/01/15 02:29:00;;;;;;;21.20;10.88;;;38.50;2201.60;;;;;;4953694;29;20039;-56
2021/01/15 02:31:46;;;;;;;23.05;10.88;;;38.50;2201.60;;;;;;4953621;29;20034;-56
2021/01/15 02:34:21;;;;;;;17.80;9.02;;;38.50;2201.60;;;;;;4953842;29;20039;-57
2021/01/15 02:36:54;;;;;;;24.67;10.85;;;38.50;2201.60;;;;;;4953755;29;20059;-56
2021/01/15 02:39:38;;;;;;;42.00;17.20;;;38.50;2201.60;;;;;;4953460;29;20117;-56
2021/01/15 02:42:06;;;;;;;16.60;9.00;;;38.60;2201.60;;;;;;4953613;29;20428;-57
2021/01/15 02:44:34;;;;;;;18.00;9.02;;;38.60;2201.60;;;;;;4953673;29;20401;-56
2021/01/15 02:47:00;;;;;;;17.95;9.20;;;38.60;2201.60;;;;;;4959623;28;20045;-56
2021/01/15 02:49:27;;;;;;;18.70;9.27;;;38.60;2201.60;;;;;;4973647;28;20118;-57
2021/01/15 02:51:54;;;;;;;15.65;8.00;;;38.60;2201.60;;;;;;4975946;28;20057;-56
2021/01/15 02:54:20;;;;;;;20.42;9.23;;;38.60;2201.60;;;;;;4976668;28;20045;-56
2021/01/15 02:56:46;;;;;;;16.38;8.65;;;38.50;2201.60;;;;;;4976478;28;20373;-57
2021/01/15 02:59:11;;;;;;;16.88;9.07;;;38.60;2201.60;;;;;;4991536;28;20038;-56
2021/01/15 03:02:04;;;;;;;16.38;8.30;;;38.60;2201.60;;;;;;5017863;28;20018;-56
2021/01/15 03:04:49;;;;;;;14.70;8.13;;;38.60;2201.60;;;;;;5024173;28;20026;-56
2021/01/15 03:07:16;;;;;;;13.98;7.28;;;38.60;2201.60;;;;;;4976416;28;20122;-57
2021/01/15 03:09:46;;;;;;;15.57;8.30;;;38.60;2201.60;;;;;;4938370;29;20043;-57
2021/01/15 03:12:15;;;;;;;19.00;9.13;;;38.60;2201.60;;;;;;4937651;29;20047;-57
2021/01/15 03:14:42;;;;;;;18.20;8.43;;;38.60;2201.60;;;;;;4946705;28;20035;-59
2021/01/15 03:17:09;;;;;;;16.10;8.65;;;38.60;2201.60;;;;;;4972216;28;20534;-57
2021/01/15 03:19:36;;;;;;;15.93;9.30;;;38.60;2201.60;;;;;;4962768;28;20043;-57
2021/01/15 03:22:15;;;;;;;18.17;9.23;;;38.60;2201.60;;;;;;4959664;28;20489;-58
2021/01/15 03:24:54;;;;;;;17.75;9.35;;;38.60;2201.60;;;;;;4976330;28;20043;-57
2021/01/15 03:27:21;;;;;;;16.48;8.60;;;38.60;2201.60;;;;;;4956977;29;20035;-56
2021/01/15 03:29:47;;;;;;;16.33;8.77;;;38.60;2201.60;;;;;;4961992;28;20046;-58
2021/01/15 03:32:14;;;;;;;16.33;8.45;;;38.60;2201.60;;;;;;4973979;28;20042;-57
2021/01/15 03:34:40;;;;;;;15.98;8.43;;;38.60;2201.60;;;;;;4956849;28;20465;-57
2021/01/15 03:37:06;;;;;;;17.02;8.80;;;38.60;2201.60;;;;;;4956703;28;20042;-57
2021/01/15 03:39:33;;;;;;;17.27;8.73;;;38.60;2201.60;;;;;;4956528;28;20047;-58
2021/01/15 03:41:59;;;;;;;17.95;9.00;;;38.60;2201.60;;;;;;4956720;28;20027;-58
2021/01/15 03:44:25;;;;;;;21.33;10.73;;;38.60;2201.60;;;;;;4999947;28;20124;-58
2021/01/15 03:46:55;;;;;;;17.77;9.05;;;38.60;2201.60;;;;;;5036195;28;20117;-56
2021/01/15 03:49:22;;;;;;;17.25;8.93;;;38.70;2201.60;;;;;;5035371;28;20128;-57
2021/01/15 03:51:48;;;;;;;18.90;9.05;;;38.70;2201.60;;;;;;5036569;28;20100;-57
2021/01/15 03:54:14;;;;;;;18.58;9.98;;;38.70;2201.60;;;;;;5036747;28;20577;-56
2021/01/15 03:56:40;;;;;;;17.98;9.23;;;38.70;2201.60;;;;;;5036880;28;20036;-57
2021/01/15 03:59:05;;;;;;;19.52;9.98;;;38.70;2201.60;;;;;;5036581;28;20029;-57
2021/01/15 04:01:32;;;;;;;19.10;10.00;;;38.70;2201.60;;;;;;5035171;28;20025;-57
2021/01/15 04:03:58;;;;;;;19.17;9.63;;;38.70;2201.60;;;;;;5036340;28;20105;-56
2021/01/15 04:06:25;;;;;;;18.17;10.07;;;38.80;2201.60;;;;;;5036449;28;20120;-56
2021/01/15 04:08:51;;;;;;;22.58;10.43;;;38.80;2201.60;;;;;;5036421;28;20057;-55
2021/01/15 04:11:18;;;;;;;21.13;10.65;;;38.80;2201.60;;;;;;5035778;28;20500;-57
2021/01/15 04:13:44;;;;;;;20.38;10.40;;;38.80;2201.60;;;;;;5035767;28;20390;-59
2021/01/15 04:16:16;;;;;;;17.60;9.20;;;38.80;2201.60;;;;;;5035774;28;20120;-56
2021/01/15 04:18:45;;;;;;;20.90;10.82;;;38.80;2201.60;;;;;;5036386;28;20475;-56
2021/01/15 04:21:15;;;;;;;21.33;11.00;;;38.80;2201.60;;;;;;5036189;28;20097;-57
2021/01/15 04:23:45;;;;;;;27.80;12.48;;;38.80;2201.60;;;;;;5036138;28;20470;-56
2021/01/15 04:26:20;;;;;;;30.40;15.00;;;38.80;2201.60;;;;;;5035259;28;20026;-56
2021/01/15 04:28:46;;;;;;;29.90;15.65;;;38.80;2201.60;;;;;;5035957;28;20079;-57
2021/01/15 04:31:19;;;;;;;23.42;12.60;;;38.80;2201.60;;;;;;5036176;28;20030;-56
2021/01/15 04:33:45;;;;;;;21.35;11.40;;;38.80;2201.60;;;;;;5036065;28;20029;-56
2021/01/15 04:36:11;;;;;;;22.17;10.93;;;38.80;2201.60;;;;;;5035948;28;20069;-56
2021/01/15 04:38:39;;;;;;;25.58;12.57;;;38.80;2201.60;;;;;;5035873;28;20371;-57
2021/01/15 04:41:05;;;;;;;25.00;11.52;;;38.80;2201.60;;;;;;5035655;28;20025;-56
2021/01/15 04:43:35;;;;;;;21.30;11.38;;;38.80;2201.60;;;;;;5035784;28;20024;-56
2021/01/15 04:46:04;;;;;;;26.77;13.52;;;38.80;2201.60;;;;;;5035657;28;20489;-56
2021/01/15 04:48:34;;;;;;;25.92;12.23;;;38.90;2201.60;;;;;;5035155;28;20021;-56
2021/01/15 04:51:03;;;;;;;22.73;11.38;;;38.90;2201.60;;;;;;5035447;28;20372;-56
2021/01/15 04:53:35;;;;;;;41.35;19.33;;;38.90;2201.60;;;;;;5035619;28;20029;-59
2021/01/15 04:56:03;;;;;;;29.25;15.65;;;38.90;2201.60;;;;;;5035430;28;20071;-57
2021/01/15 04:58:33;;;;;;;123.38;49.88;;;38.90;2201.60;;;;;;5035234;28;20037;-56
2021/01/15 05:01:00;;;;;;;70.00;31.33;;;38.90;2201.60;;;;;;5035298;28;20113;-56
2021/01/15 05:03:26;;;;;;;22.90;11.73;;;38.80;2201.60;;;;;;5035172;28;20033;-56
2021/01/15 05:06:00;;;;;;;30.80;15.00;;;38.80;2201.60;;;;;;5035365;28;20530;-57
2021/01/15 05:08:27;;;;;;;76.00;37.65;;;38.80;2201.60;;;;;;5035143;28;20120;-56
2021/01/15 05:10:54;;;;;;;139.73;82.28;;;38.80;2201.60;;;;;;5035072;28;20381;-56
2021/01/15 05:13:20;;;;;;;102.47;65.97;;;38.80;2201.60;;;;;;5034745;28;20055;-57
2021/01/15 05:15:48;;;;;;;23.73;12.48;;;38.80;2201.60;;;;;;5035126;28;20029;-56
2021/01/15 05:18:15;;;;;;;18.95;9.77;;;38.80;2201.60;;;;;;5035149;28;20021;-56
2021/01/15 05:20:41;;;;;;;23.00;11.15;;;38.80;2201.60;;;;;;5034945;28;20045;-57
2021/01/15 05:23:08;;;;;;;18.88;10.30;;;38.80;2201.60;;;;;;5034449;28;20494;-57
2021/01/15 05:25:36;;;;;;;40.50;25.05;;;38.80;2201.60;;;;;;5034834;28;20032;-56
2021/01/15 05:28:02;;;;;;;24.20;13.38;;;38.70;2201.60;;;;;;5034865;28;20160;-57
2021/01/15 05:30:29;;;;;;;31.10;14.40;;;38.70;2201.60;;;;;;5034647;28;20040;-57
2021/01/15 05:32:57;;;;;;;36.40;16.67;;;38.70;2201.60;;;;;;5034644;28;20022;-56
2021/01/15 05:35:42;;;;;;;49.35;20.80;;;38.70;2201.60;;;;;;5034558;28;20034;-57
2021/01/15 05:38:07;;;;;;;;;;;38.70;2201.60;;;;;;5035247;28;20059;-56
2021/01/15 05:40:44;;;;;;;42.45;19.85;;;38.80;2201.60;;;;;;5034510;28;20351;-56
2021/01/15 05:43:21;;;;;;;42.72;19.23;;;38.80;2201.60;;;;;;5034572;28;20108;-58
2021/01/15 05:46:11;;;;;;;30.88;15.55;;;38.80;2201.60;;;;;;5034353;28;20059;-56
2021/01/15 05:48:47;;;;;;;33.20;16.30;;;38.80;2201.60;;;;;;5034201;28;20025;-57
2021/01/15 05:51:35;;;;;;;29.27;15.00;;;38.70;2201.60;;;;;;5034541;28;20030;-57
2021/01/15 05:54:03;;;;;;;28.55;14.82;;;38.60;2201.60;;;;;;5034467;28;20045;-57
2021/01/15 05:56:39;;;;;;;34.05;17.08;;;38.50;2201.60;;;;;;5034376;28;20475;-56
2021/01/15 05:59:08;;;;;;;34.08;16.08;;;38.50;2201.60;;;;;;5034363;28;20083;-57
2021/01/15 06:01:43;;;;;;;33.78;16.67;;;38.50;2201.60;;;;;;5034087;28;20491;-56
2021/01/15 06:04:19;;;;;;;35.28;17.83;;;38.40;2201.60;;;;;;5034058;28;20033;-56
2021/01/15 06:06:46;;;;;;;37.10;20.00;;;38.40;2201.60;;;;;;5034078;28;20041;-57
2021/01/15 06:09:19;;;;;;;31.25;16.63;;;13.70;2201.60;;;;;;5034152;28;20366;-56
2021/01/15 06:11:44;;;;;;;30.58;15.65;;;13.70;2201.60;;;;;;5033941;28;20088;-56
2021/01/15 06:14:21;;;;;;;28.40;16.63;;;13.70;2201.60;;;;;;5034122;28;20069;-56
2021/01/15 06:16:48;;;;;;;26.27;14.23;;;13.60;2201.60;;;;;;5033801;28;20048;-56
2021/01/15 06:19:13;;;;;;;30.58;15.98;;;13.60;2201.60;;;;;;5033960;28;20029;-57
2021/01/15 06:21:50;;;;;;;27.92;14.07;;;13.60;2201.60;;;;;;5033738;28;20041;-56
2021/01/15 06:24:21;;;;;;;29.95;15.45;;;13.50;2201.60;;;;;;5033097;28;20367;-56
2021/01/15 06:27:03;;;;;;;31.33;16.58;;;13.40;2201.60;;;;;;5034032;28;20036;-57
2021/01/15 06:29:43;;;;;;;33.85;16.52;;;13.40;2201.60;;;;;;5033783;28;20599;-56
2021/01/15 06:32:10;;;;;;;31.15;16.35;;;13.30;2201.60;;;;;;5033835;28;20394;-56
2021/01/15 06:34:48;;;;;;;31.80;16.55;;;13.30;2201.60;;;;;;5033888;28;20026;-56
2021/01/15 06:37:21;;;;;;;30.95;15.65;;;13.30;2201.60;;;;;;5033696;28;20033;-57
2021/01/15 06:40:19;;;;;;;30.95;16.45;;;13.30;2201.60;;;;;;5034030;28;20026;-56
2021/01/15 06:42:47;;;;;;;32.10;15.35;;;13.20;2201.60;;;;;;4934991;29;20036;-58
2021/01/15 06:45:15;;;;;;;36.88;17.92;;;13.20;2201.60;;;;;;4934333;29;20044;-57
2021/01/15 06:47:43;;;;;;;31.40;15.95;;;13.20;2201.60;;;;;;4934644;29;20031;-58
2021/01/15 06:50:17;;;;;;;32.47;15.85;;;13.20;2201.60;;;;;;4934231;29;20044;-57
2021/01/15 06:52:48;;;;;;;31.10;16.70;;;13.10;2201.60;;;;;;4934323;28;20044;-56
2021/01/15 06:55:32;;;;;;;25.23;13.27;;;13.10;2201.60;;;;;;4934783;29;20057;-56
2021/01/15 06:58:08;;;;;;;27.52;15.30;;;13.10;2201.60;;;;;;4934577;28;20038;-57
2021/01/15 07:00:38;;;;;;;27.60;13.02;;;13.00;2201.60;;;;;;4934408;29;20106;-57
2021/01/15 07:03:36;;;;;;;42.78;21.83;;;13.00;2201.60;;;;;;4934135;29;20035;-56
2021/01/15 07:06:03;;;;;;;34.33;17.67;;;13.00;2201.60;;;;;;4933785;29;20032;-57
2021/01/15 07:08:31;;;;;;;29.33;15.18;;;0.00;2201.60;;;;;;4934154;29;20031;-56
2021/01/15 07:10:59;;;;;;;33.65;16.90;;;0.00;2201.60;;;;;;4934014;29;20063;-57
2021/01/15 07:13:28;;;;;;;38.30;19.23;;;0.10;2201.60;;;;;;4934159;29;20040;-56
2021/01/15 07:15:55;;;;;;;35.58;17.63;;;0.10;2201.60;;;;;;4934329;29;20039;-57
2021/01/15 07:18:33;;;;;;;38.97;19.33;;;0.20;2201.60;;;;;;4984961;28;20030;-56
2021/01/15 07:21:07;;;;;;;62.70;27.80;;;0.20;2201.60;;;;;;5033021;28;20022;-57
2021/01/15 07:23:45;;;;;;;59.08;26.50;;;0.40;2201.60;;;;;;5033298;28;20382;-57
2021/01/15 07:26:13;;;;;;;65.18;27.00;;;0.50;2201.60;;;;;;5033532;28;20497;-58
2021/01/15 07:28:40;;;;;;;88.43;36.47;;;0.70;2201.60;;;;;;5033047;28;20371;-56
2021/01/15 07:31:07;;;;;;;73.30;30.70;;;0.70;2201.60;;;;;;5033437;28;20105;-56
2021/01/15 07:33:36;;;;;;;53.85;25.90;;;0.80;2201.60;;;;;;5033443;28;20347;-56
2021/01/15 07:36:03;;;;;;;55.85;26.48;;;0.90;2201.60;;;;;;5035128;28;20439;-57
2021/01/15 07:38:28;;;;;;;59.25;29.88;;;25.60;2201.60;;;;;;5036616;28;20048;-57
2021/01/15 07:40:54;;;;;;;51.95;25.13;;;25.80;2201.60;;;;;;5036981;28;20134;-57
2021/01/15 07:43:34;;;;;;;56.70;28.30;;;25.90;2201.60;;;;;;5019054;28;20040;-57
2021/01/15 07:46:01;;;;;;;55.00;27.67;;;26.10;2201.60;;;;;;5036645;28;20115;-58
2021/01/15 07:48:28;;;;;;;44.22;21.05;;;26.20;2201.60;;;;;;5036565;28;20021;-57
2021/01/15 07:50:54;;;;;;;51.85;22.75;;;26.30;2176.00;;;;;;5036921;28;20029;-57
2021/01/15 07:53:22;;;;;;;48.30;23.13;;;26.40;2176.00;;;;;;5036712;28;20021;-57
2021/01/15 07:55:49;;;;;;;49.70;22.42;;;26.40;2176.00;;;;;;5036611;28;20466;-57
2021/01/15 07:58:23;;;;;;;46.88;22.02;;;26.50;2150.40;;;;;;5036671;28;20040;-57
2021/01/15 08:00:49;;;;;;;46.00;20.38;;;51.20;2150.40;;;;;;5036375;28;20352;-58
2021/01/15 08:03:15;;;;;;;54.75;26.33;;;51.30;2150.40;;;;;;5036523;28;20029;-57
2021/01/15 08:05:45;;;;;;;55.92;25.33;;;51.30;2124.80;;;;;;5036571;28;20029;-57
2021/01/15 08:08:16;;;;;;;42.28;21.13;;;51.40;2124.80;;;;;;5036603;28;20021;-58
2021/01/15 08:10:50;;;;;;;44.90;22.05;;;51.50;2124.80;;;;;;5036363;28;20036;-58
2021/01/15 08:13:24;;;;;;;52.45;25.42;;;51.50;2124.80;;;;;;5036099;28;20490;-58
2021/01/15 08:15:50;;;;;;;45.00;23.50;;;51.50;2124.80;;;;;;5036223;28;20048;-57
2021/01/15 08:18:16;;;;;;;49.15;25.55;;;51.50;2124.80;;;;;;5036073;28;20032;-57
2021/01/15 08:20:50;;;;;;;58.45;26.52;;;51.50;2099.20;;;;;;5036174;28;20489;-57
2021/01/15 08:23:23;;;;;;;61.10;29.77;;;51.50;2099.20;;;;;;5036097;28;20034;-57
2021/01/15 08:26:20;;;;;;;60.75;30.20;;;51.50;2124.80;;;;;;5036207;28;20017;-58
2021/01/15 08:28:49;;;;;;;57.15;28.63;;;51.60;2124.80;;;;;;5011184;28;20029;-57
2021/01/15 08:31:20;;;;;;;60.88;28.75;;;51.70;2099.20;;;;;;5035988;28;20536;-58
2021/01/15 08:33:46;;;;;;;163.25;87.20;;;51.70;2073.60;;;;;;5035815;28;20017;-58
2021/01/15 08:36:14;;;;;;;99.45;52.33;;;51.70;2099.20;;;;;;5017665;28;20120;-57
2021/01/15 08:38:40;;;;;;;33.67;19.17;;;51.60;2099.20;;;;;;5035922;28;20045;-57
2021/01/15 08:41:23;;;;;;;63.05;31.58;;;51.70;2073.60;;;;;;5035717;28;20025;-57
2021/01/15 08:43:52;;;;;;;45.45;22.52;;;51.80;2073.60;;;;;;5035860;28;20375;-57
2021/01/15 08:46:20;;;;;;;44.22;23.55;;;51.80;2048.00;;;;;;5035624;28;20033;-57
2021/01/15 08:48:47;;;;;;;59.92;29.42;;;51.80;2048.00;;;;;;5034747;28;20057;-57
2021/01/15 08:51:25;;;;;;;70.47;33.28;;;51.80;2048.00;;;;;;5035529;28;20034;-57
2021/01/15 08:54:06;;;;;;;55.83;26.00;;;51.70;2048.00;;;;;;5035575;28;20076;-57
2021/01/15 08:56:36;;;;;;;70.72;32.17;;;51.70;2073.60;;;;;;5035637;28;20078;-58
2021/01/15 08:59:13;;;;;;;65.82;29.92;;;51.80;2048.00;;;;;;5035449;28;20033;-57
2021/01/15 09:01:42;;;;;;;84.35;39.22;;;51.90;2048.00;;;;;;5035299;28;20041;-57
2021/01/15 09:04:12;;;;;;;49.13;27.67;;;51.90;2048.00;;;;;;5035310;28;20033;-57
2021/01/15 09:06:40;;;;;;;52.83;29.15;;;51.90;2048.00;;;;;;5035482;28;20097;-57
2021/01/15 09:09:10;;;;;;;55.55;30.60;;;52.00;2048.00;;;;;;5035518;28;20037;-57
2021/01/15 09:11:39;;;;;;;56.25;31.48;;;52.00;2022.40;;;;;;5035131;28;20083;-59
2021/01/15 09:14:06;;;;;;;64.38;35.25;;;52.10;2022.40;;;;;;5035356;28;20382;-59
2021/01/15 09:16:33;;;;;;;56.15;28.40;;;52.10;2022.40;;;;;;5035090;28;20108;-59
2021/01/15 09:19:08;;;;;;;39.97;21.35;;;76.80;2022.40;;;;;;5035173;28;20021;-59
2021/01/15 09:21:44;;;;;;;45.72;22.92;;;52.00;2022.40;;;;;;5035097;28;20038;-60
2021/01/15 09:24:10;;;;;;;40.65;22.73;;;52.00;2022.40;;;;;;5034956;28;20459;-59
2021/01/15 09:26:36;;;;;;;73.80;38.58;;;52.00;2022.40;;;;;;5035017;28;20048;-59
2021/01/15 09:29:01;;;;;;;60.38;32.65;;;52.00;2022.40;;;;;;5034861;28;20471;-59
2021/01/15 09:31:27;;;;;;;62.65;30.65;;;52.00;2022.40;;;;;;5034707;28;20030;-59
2021/01/15 09:33:53;;;;;;;47.33;25.05;;;52.00;2048.00;;;;;;5034699;28;20053;-59
2021/01/15 09:36:28;;;;;;;44.88;24.25;;;51.90;2022.40;;;;;;5034814;28;20439;-59
2021/01/15 09:38:55;;;;;;;;;;;52.00;2048.00;;;;;;5035171;28;20026;-59
2021/01/15 09:41:21;;;;;;;70.68;38.67;;;52.00;2022.40;;;;;;5034507;28;19909;-59
2021/01/15 09:43:47;;;;;;;53.55;26.17;;;76.80;2048.00;;;;;;5034679;28;20025;-59
2021/01/15 09:46:21;;;;;;;51.05;28.60;;;52.10;1996.80;;;;;;5034692;28;20025;-59
2021/01/15 09:48:47;;;;;;;77.45;41.40;;;52.10;2022.40;;;;;;5034413;28;20033;-58
2021/01/15 09:51:12;;;;;;;65.13;33.17;;;76.80;2022.40;;;;;;5034368;28;20116;-59
2021/01/15 09:53:38;;;;;;;66.88;35.53;;;76.90;1996.80;;;;;;5034181;28;20032;-59
2021/01/15 09:56:04;;;;;;;45.13;24.05;;;77.10;1996.80;;;;;;5016575;28;20048;-59
2021/01/15 09:58:30;;;;;;;42.85;22.95;;;76.90;1996.80;;;;;;5033878;28;20022;-59
2021/01/15 10:00:55;;;;;;;52.20;28.35;;;77.10;1996.80;;;;;;5034159;28;20104;-59
2021/01/15 10:03:22;;;;;;;49.75;25.77;;;77.30;1971.20;;;;;;5034428;28;20032;-60
2021/01/15 10:05:47;;;;;;;44.38;23.92;;;77.40;1945.60;;;;;;5034174;28;20025;-59
2021/01/15 10:08:13;;;;;;;75.80;33.70;;;77.30;1945.60;;;;;;5034151;28;20139;-59
2021/01/15 10:10:39;;;;;;;88.38;37.78;;;77.50;1945.60;;;;;;5033804;28;20041;-59
2021/01/15 10:13:04;;;;;;;75.43;33.08;;;77.60;1920.00;;;;;;5033777;28;20057;-59
2021/01/15 10:15:30;;;;;;;79.50;36.97;;;102.40;1894.40;;;;;;5016119;28;20080;-59
2021/01/15 10:17:56;;;;;;;59.25;28.92;;;102.70;1868.80;;;;;;5015870;28;20537;-60
2021/01/15 10:20:25;;;;;;;54.97;29.10;;;102.80;1843.20;;;;;;5034094;28;20029;-60
2021/01/15 10:22:53;;;;;;;52.15;28.30;;;102.80;1817.60;;;;;;5033773;28;20021;-59
2021/01/15 10:25:19;;;;;;;61.45;28.77;;;102.90;1817.60;;;;;;5034078;28;20026;-59
2021/01/15 10:27:45;;;;;;;53.00;26.52;;;102.80;1817.60;;;;;;5034003;28;20502;-59
2021/01/15 10:30:11;;;;;;;61.00;30.27;;;102.80;1817.60;;;;;;5033637;28;20037;-59
2021/01/15 10:32:37;;;;;;;36.33;19.90;;;102.80;1817.60;;;;;;5033820;28;20030;-59
2021/01/15 10:35:03;;;;;;;62.50;30.00;;;102.70;1843.20;;;;;;5029758;28;20506;-59
2021/01/15 10:37:30;;;;;;;62.75;31.50;;;102.80;1843.20;;;;;;5023135;28;20030;-59
2021/01/15 10:39:56;;;;;;;85.13;36.75;;;102.90;1843.20;;;;;;5024385;28;20025;-58
2021/01/15 10:42:22;;;;;;;67.15;29.67;;;102.80;1843.20;;;;;;5032303;28;20139;-58
2021/01/15 10:44:47;;;;;;;47.80;24.55;;;102.80;1843.20;;;;;;5033756;28;20026;-59
2021/01/15 10:47:14;;;;;;;64.13;30.60;;;103.00;1817.60;;;;;;5033674;28;20025;-58
2021/01/15 10:49:40;;;;;;;109.40;45.20;;;103.00;1792.00;;;;;;5033510;28;20037;-59
2021/01/15 10:52:07;;;;;;;36.78;20.00;;;102.90;1817.60;;;;;;5033570;28;20029;-59
2021/01/15 10:54:33;;;;;;;80.97;37.15;;;102.90;1817.60;;;;;;5033787;28;20034;-59
2021/01/15 10:56:58;;;;;;;45.33;24.25;;;102.70;1843.20;;;;;;5033585;28;20029;-59
2021/01/15 10:59:24;;;;;;;61.35;33.67;;;102.80;1843.20;;;;;;5033450;28;20071;-59
2021/01/15 11:01:51;;;;;;;63.80;30.80;;;102.80;1843.20;;;;;;5030442;28;20021;-59
2021/01/15 11:04:19;;;;;;;41.47;21.90;;;102.90;1817.60;;;;;;5033189;28;20028;-59
2021/01/15 11:06:47;;;;;;;40.03;22.77;;;103.00;1817.60;;;;;;5020266;28;20029;-59
2021/01/15 11:09:19;;;;;;;49.75;26.40;;;103.30;1766.40;;;;;;5030104;28;20124;-59
2021/01/15 11:11:46;;;;;;;60.25;34.35;;;128.00;1792.00;;;;;;5035661;28;20041;-59
2021/01/15 11:14:13;;;;;;;66.38;36.03;;;128.30;1766.40;;;;;;5036854;28;20033;-59
2021/01/15 11:16:39;;;;;;;66.63;35.50;;;128.70;1740.80;;;;;;5029094;28;20104;-59
2021/01/15 11:19:05;;;;;;;80.50;41.00;;;153.60;1715.20;;;;;;5016665;28;20116;-58
2021/01/15 11:21:34;;;;;;;62.67;32.67;;;153.60;1689.60;;;;;;5016993;28;20026;-60
2021/01/15 11:24:02;;;;;;;58.95;32.10;;;154.00;1638.40;;;;;;5016096;28;20049;-59
2021/01/15 11:26:32;;;;;;;35.92;20.85;;;154.00;1612.80;;;;;;5034138;28;20030;-58
2021/01/15 11:29:00;;;;;;;34.50;20.73;;;154.10;1612.80;;;;;;5036421;28;20037;-57
2021/01/15 11:31:26;;;;;;;32.45;18.00;;;154.30;1587.20;;;;;;5036183;28;20552;-58
2021/01/15 11:33:52;;;;;;;42.25;24.83;;;179.20;1536.00;;;;;;5036393;28;20026;-58
2021/01/15 11:36:19;;;;;;;48.70;27.13;;;179.40;1536.00;;;;;;5036092;28;20398;-59
2021/01/15 11:38:45;;;;;;;32.50;19.85;;;179.50;1484.80;;;;;;5036458;28;20088;-59
2021/01/15 11:41:15;;;;;;;24.77;15.45;;;179.60;1484.80;;;;;;5018913;28;20033;-60
2021/01/15 11:43:42;;;;;;;65.80;28.58;;;179.30;1510.40;;;;;;5036281;28;20112;-59
2021/01/15 11:46:09;;;;;;;47.78;25.48;;;179.80;1484.80;;;;;;5036319;28;20119;-59
2021/01/15 11:48:35;;;;;;;69.57;35.97;;;180.00;1459.20;;;;;;5036213;28;20091;-59
2021/01/15 11:51:01;;;;;;;122.95;47.22;;;205.10;1433.60;;;;;;5036274;28;20033;-59
2021/01/15 11:53:32;;;;;;;73.60;38.05;;;205.70;1356.80;;;;;;5036208;28;20055;-59
2021/01/15 11:56:00;;;;;;;60.65;43.13;;;230.70;1305.60;;;;;;5036129;28;20646;-59
2021/01/15 11:58:26;;;;;;;46.22;30.10;;;256.40;1177.60;;;;;;5036201;28;20036;-59
2021/01/15 12:00:51;;;;;;;39.50;23.90;;;256.60;1177.60;;;;;;5035930;28;20026;-59
2021/01/15 12:03:17;;;;;;;32.47;21.60;;;282.10;1126.40;;;;;;5035798;28;20021;-59
2021/01/15 12:05:46;;;;;;;42.15;26.55;;;358.90;870.40;;;;;;5035750;28;20030;-59
2021/01/15 12:08:12;;;;;;;30.60;19.95;;;410.10;768.00;;;;;;5035748;28;20383;-59
2021/01/15 12:10:37;;;;;;;56.15;31.08;;;384.00;819.20;;;;;;5035763;28;20037;-59
2021/01/15 12:13:03;;;;;;;96.55;46.65;;;358.40;896.00;;;;;;5035618;28;20099;-59
2021/01/15 12:15:29;;;;;;;89.78;42.85;;;359.30;819.20;;;;;;5035959;28;20044;-59
2021/01/15 12:17:54;;;;;;;269.77;106.63;;;461.20;691.20;;;;;;5035612;28;20095;-60
2021/01/15 12:20:20;;;;;;;117.97;57.40;;;512.70;537.60;;;;;;5035599;28;20022;-60